createdAt,value
2019-02-25T00:03:37.176Z,11.23
2019-02-25T00:06:24.988Z,11.47
2019-02-25T00:08:53.552Z,10.57
2019-02-25T00:11:22.200Z,10.50
2019-02-25T00:14:10.019Z,9.73
2019-02-25T00:16:57.853Z,10.63
2019-02-25T00:19:38.311Z,10.07
2019-02-25T00:22:19.430Z,10.13
2019-02-25T00:25:00.311Z,10.83
2019-02-25T00:27:28.787Z,11.00
2019-02-25T00:30:16.603Z,10.47
2019-02-25T00:33:04.411Z,10.40
2019-02-25T00:35:52.197Z,9.83
2019-02-25T00:38:33.369Z,9.80
2019-02-25T00:41:01.913Z,10.90
2019-02-25T00:43:49.703Z,10.17
2019-02-25T00:46:30.720Z,10.50
2019-02-25T00:49:11.403Z,10.93
2019-02-25T00:51:39.883Z,10.80
2019-02-25T00:54:27.692Z,11.23
2019-02-25T00:57:09.048Z,10.93
2019-02-25T00:59:49.940Z,10.63
2019-02-25T01:02:18.424Z,10.30
2019-02-25T01:05:25.789Z,10.50
2019-02-25T01:08:13.662Z,10.70
2019-02-25T01:14:01.299Z,9.53
2019-02-25T01:16:42.510Z,11.00
2019-02-25T01:19:23.166Z,10.30
2019-02-25T01:21:51.767Z,9.80
2019-02-25T01:24:39.603Z,10.43
2019-02-25T01:27:27.398Z,9.53
2019-02-25T01:30:08.062Z,9.87
2019-02-25T01:32:48.964Z,10.13
2019-02-25T01:35:29.656Z,9.90
2019-02-25T01:38:10.765Z,10.10
2019-02-25T01:40:51.662Z,10.33
2019-02-25T01:43:32.511Z,10.83
2019-02-25T01:46:13.322Z,9.97
2019-02-25T01:48:41.796Z,9.80
2019-02-25T01:51:29.614Z,9.70
2019-02-25T01:54:17.415Z,9.67
2019-02-25T01:56:58.095Z,9.27
2019-02-25T01:59:38.827Z,9.63
2019-02-25T02:02:19.695Z,9.50
2019-02-25T02:05:00.650Z,10.17
2019-02-25T02:07:41.750Z,9.00
2019-02-25T02:10:50.267Z,9.57
2019-02-25T02:13:18.724Z,10.50
2019-02-25T02:16:06.538Z,9.60
2019-02-25T02:18:47.670Z,9.40
2019-02-25T02:21:28.608Z,9.73
2019-02-25T02:23:57.088Z,10.00
2019-02-25T02:26:44.587Z,10.33
2019-02-25T02:29:13.041Z,9.50
2019-02-25T02:32:00.851Z,10.57
2019-02-25T02:34:29.295Z,9.73
2019-02-25T02:37:17.113Z,10.27
2019-02-25T02:46:40.269Z,10.27
2019-02-25T02:49:20.930Z,10.10
2019-02-25T02:52:01.456Z,10.00
2019-02-25T02:54:29.920Z,10.43
2019-02-25T02:57:17.717Z,10.07
2019-02-25T02:59:58.841Z,10.40
2019-02-25T03:02:39.506Z,10.37
2019-02-25T03:05:20.538Z,9.67
2019-02-25T03:08:01.372Z,10.00
2019-02-25T03:10:29.923Z,9.83
2019-02-25T03:12:58.385Z,9.80
2019-02-25T03:15:46.270Z,9.60
2019-02-25T03:18:14.828Z,10.00
2019-02-25T03:21:02.705Z,10.83
2019-02-25T03:23:43.522Z,9.83
2019-02-25T03:26:24.449Z,9.67
2019-02-25T03:29:05.152Z,10.13
2019-02-25T03:31:45.921Z,10.40
2019-02-25T03:34:26.540Z,10.33
2019-02-25T03:43:06.769Z,10.37
2019-02-25T03:45:47.442Z,10.50
2019-02-25T03:48:28.526Z,10.77
2019-02-25T03:51:09.247Z,10.47
2019-02-25T03:53:50.120Z,10.70
2019-02-25T03:56:30.902Z,10.83
2019-02-25T03:58:59.933Z,10.10
2019-02-25T04:01:28.608Z,9.73
2019-02-25T04:04:16.497Z,10.50
2019-02-25T04:07:04.437Z,9.70
2019-02-25T04:09:32.916Z,10.60
2019-02-25T04:12:20.697Z,9.97
2019-02-25T04:14:59.502Z,9.90
2019-02-25T04:17:47.364Z,8.93
2019-02-25T04:20:36.690Z,10.57
2019-02-25T04:23:17.404Z,9.50
2019-02-25T04:25:48.050Z,9.73
2019-02-25T04:28:16.576Z,10.07
2019-02-25T04:30:45.057Z,11.20
2019-02-25T04:33:32.928Z,10.90
2019-02-25T04:36:13.388Z,9.80
2019-02-25T04:38:41.875Z,10.03
2019-02-25T04:41:29.698Z,10.27
2019-02-25T04:44:10.910Z,10.17
2019-02-25T04:46:51.547Z,9.07
2019-02-25T04:49:20.080Z,9.30
2019-02-25T04:52:07.880Z,10.13
2019-02-25T04:54:48.563Z,9.80
2019-02-25T04:57:29.206Z,9.90
2019-02-25T05:00:10.212Z,9.90
2019-02-25T05:02:51.143Z,10.23
2019-02-25T05:05:31.965Z,10.13
2019-02-25T05:08:12.532Z,10.40
2019-02-25T05:10:53.237Z,10.10
2019-02-25T05:13:34.056Z,9.97
2019-02-25T05:16:14.809Z,10.37
2019-02-25T05:18:55.565Z,10.03
2019-02-25T05:21:36.073Z,10.10
2019-02-25T05:24:16.617Z,10.40
2019-02-25T05:26:57.079Z,10.67
2019-02-25T05:29:37.929Z,10.90
2019-02-25T05:32:18.771Z,10.77
2019-02-25T05:34:59.720Z,10.17
2019-02-25T05:37:40.597Z,9.90
2019-02-25T05:40:21.524Z,9.37
2019-02-25T05:42:50.045Z,9.80
2019-02-25T05:45:37.856Z,10.43
2019-02-25T05:48:25.646Z,9.33
2019-02-25T05:51:06.011Z,11.57
2019-02-25T05:53:46.904Z,10.37
2019-02-25T05:56:27.637Z,10.13
2019-02-25T05:59:08.449Z,10.57
2019-02-25T06:01:36.926Z,11.20
2019-02-25T06:04:24.798Z,9.50
2019-02-25T06:07:05.209Z,9.97
2019-02-25T06:09:45.977Z,10.60
2019-02-25T06:12:27.001Z,9.77
2019-02-25T06:15:07.935Z,10.23
2019-02-25T06:17:48.808Z,10.13
2019-02-25T06:20:29.729Z,9.80
2019-02-25T06:23:10.430Z,9.37
2019-02-25T06:25:50.621Z,9.50
2019-02-25T06:28:31.448Z,9.80
2019-02-25T06:31:11.992Z,9.77
2019-02-25T06:33:52.753Z,9.23
2019-02-25T06:36:33.780Z,9.60
2019-02-25T06:39:14.505Z,9.87
2019-02-25T06:41:55.487Z,8.57
2019-02-25T06:44:23.976Z,9.57
2019-02-25T06:47:11.788Z,9.23
2019-02-25T06:49:59.602Z,9.30
2019-02-25T06:52:40.801Z,9.40
2019-02-25T06:55:21.806Z,10.07
2019-02-25T06:58:02.460Z,9.83
2019-02-25T07:00:31.086Z,9.97
2019-02-25T07:02:59.569Z,9.60
2019-02-25T07:18:06.756Z,10.17
2019-02-25T07:26:34.545Z,9.80
2019-02-25T07:37:51.792Z,10.03
2019-02-25T08:06:17.768Z,9.90
2019-02-25T08:09:00.544Z,10.87
2019-02-25T08:12:00.082Z,10.07
2019-02-25T08:14:47.751Z,10.07
2019-02-25T08:23:42.384Z,10.00
2019-02-25T08:41:21.971Z,10.43
2019-02-25T08:44:21.414Z,9.97
2019-02-25T08:47:06.309Z,9.90
2019-02-25T08:49:51.440Z,10.87
2019-02-25T08:55:21.205Z,10.90
2019-02-25T08:58:02.067Z,10.90
2019-02-25T09:00:42.896Z,10.53
2019-02-25T09:03:23.623Z,10.00
2019-02-25T09:06:04.196Z,10.13
2019-02-25T09:08:45.107Z,9.67
2019-02-25T09:11:25.560Z,10.30
2019-02-25T09:14:06.796Z,10.33
2019-02-25T09:16:47.528Z,10.77
2019-02-25T09:19:16.155Z,10.30
2019-02-25T09:21:44.645Z,10.43
2019-02-25T09:24:32.466Z,9.93
2019-02-25T09:30:50.242Z,10.43
2019-02-25T09:41:46.200Z,9.83
2019-02-25T09:44:14.762Z,9.93
2019-02-25T09:47:02.570Z,9.63
2019-02-25T09:52:33.347Z,8.80
2019-02-25T09:58:04.056Z,9.17
2019-02-25T10:03:41.375Z,8.93
2019-02-25T10:21:11.134Z,9.77
2019-02-25T10:23:53.903Z,8.87
2019-02-25T10:56:49.396Z,9.70
2019-02-25T10:59:32.124Z,9.03
2019-02-25T11:05:06.275Z,9.33
2019-02-25T11:33:58.593Z,22.80
2019-02-25T11:36:44.142Z,26.90
2019-02-25T11:39:25.374Z,21.33
2019-02-25T11:42:08.015Z,8.50
2019-02-25T12:05:52.598Z,8.50
2019-02-25T12:08:21.901Z,7.90
2019-02-25T12:25:45.574Z,7.73
2019-02-25T12:37:29.485Z,7.53
2019-02-25T12:40:11.363Z,7.43
2019-02-25T12:42:52.453Z,7.83
2019-02-25T12:45:33.452Z,7.67
2019-02-25T12:51:05.353Z,8.20
2019-02-25T12:53:33.812Z,8.23
2019-02-25T12:59:19.867Z,5.77
2019-02-25T13:05:29.403Z,4.93
2019-02-25T13:08:09.903Z,5.10
2019-02-25T13:10:38.644Z,4.50
2019-02-25T13:13:26.441Z,4.40
2019-02-25T13:19:05.435Z,4.10
2019-02-25T13:45:03.412Z,3.77
2019-02-25T13:47:44.765Z,3.87
2019-02-25T13:50:25.587Z,3.93
2019-02-25T13:56:09.735Z,4.00
2019-02-25T13:58:50.900Z,3.30
2019-02-25T14:01:31.708Z,3.53
2019-02-25T14:04:12.219Z,3.33
2019-02-25T14:06:53.041Z,3.23
2019-02-25T14:09:33.718Z,3.37
2019-02-25T14:18:10.707Z,3.83
2019-02-25T14:23:48.258Z,4.27
2019-02-25T14:38:40.541Z,2.90
2019-02-25T14:44:12.068Z,3.07
2019-02-25T14:46:53.016Z,3.50
2019-02-25T14:49:35.237Z,3.60
2019-02-25T14:52:16.623Z,3.40
2019-02-25T14:54:45.944Z,3.37
2019-02-25T15:00:05.640Z,3.40
2019-02-25T15:05:35.400Z,3.50
2019-02-25T15:08:16.441Z,3.80
2019-02-25T15:11:00.020Z,3.40
2019-02-25T15:13:40.301Z,3.33
2019-02-25T15:16:21.257Z,3.47
2019-02-25T15:19:02.224Z,4.00
2019-02-25T15:36:04.620Z,3.80
2019-02-25T15:38:52.481Z,3.70
2019-02-25T15:41:21.043Z,3.77
2019-02-25T15:44:09.422Z,3.97
2019-02-25T15:52:40.095Z,4.97
2019-02-25T15:55:21.319Z,5.07
2019-02-25T15:58:03.583Z,4.43
2019-02-25T16:00:44.820Z,4.67
2019-02-25T16:06:14.552Z,4.90
2019-02-25T16:14:53.151Z,7.77
2019-02-25T16:18:02.342Z,8.43
2019-02-25T16:23:31.812Z,5.80
2019-02-25T16:26:00.027Z,4.83
2019-02-25T16:28:50.264Z,4.80
2019-02-25T16:31:31.495Z,4.63
2019-02-25T16:34:14.326Z,3.93
2019-02-25T16:36:55.982Z,4.33
2019-02-25T16:39:37.457Z,4.43
2019-02-25T16:42:06.339Z,3.97
2019-02-25T16:44:55.716Z,4.13
2019-02-25T16:47:32.776Z,3.47
2019-02-25T16:52:26.282Z,4.07
2019-02-25T16:55:15.594Z,4.43
2019-02-25T16:57:58.919Z,4.10
2019-02-25T17:00:41.183Z,4.43
2019-02-25T17:03:11.171Z,3.80
2019-02-25T17:05:59.547Z,3.63
2019-02-25T17:08:39.891Z,4.30
2019-02-25T17:11:21.869Z,4.33
2019-02-25T17:13:50.532Z,4.20
2019-02-25T17:16:23.505Z,3.83
2019-02-25T17:21:44.445Z,3.83
2019-02-25T17:27:46.597Z,4.37
2019-02-25T17:30:34.527Z,4.33
2019-02-25T17:33:17.304Z,4.20
2019-02-25T17:35:59.458Z,4.33
2019-02-25T17:47:24.525Z,5.10
2019-02-25T17:55:55.975Z,4.80
2019-02-25T18:01:25.882Z,4.93
2019-02-25T18:04:08.305Z,4.97
2019-02-25T18:06:37.100Z,5.33
2019-02-25T18:09:26.112Z,5.77
2019-02-25T18:12:08.593Z,5.97
2019-02-25T18:14:49.725Z,6.20
2019-02-25T18:17:30.969Z,5.80
2019-02-25T18:20:11.955Z,6.37
2019-02-25T18:22:40.660Z,5.73
2019-02-25T18:25:28.915Z,6.53
2019-02-25T18:28:17.813Z,7.00
2019-02-25T18:31:01.627Z,6.30
2019-02-25T18:33:52.638Z,6.60
2019-02-25T18:36:21.831Z,8.07
2019-02-25T18:38:52.705Z,7.70
2019-02-25T18:44:51.277Z,6.50
2019-02-25T18:50:05.494Z,6.90
2019-02-25T18:52:36.774Z,6.60
2019-02-25T18:55:26.654Z,6.67
2019-02-25T18:57:55.325Z,6.63
2019-02-25T19:00:39.508Z,6.40
2019-02-25T19:03:43.458Z,7.43
2019-02-25T19:06:17.074Z,7.47
2019-02-25T19:08:47.022Z,8.13
2019-02-25T19:11:34.917Z,8.50
2019-02-25T19:14:04.173Z,8.33
2019-02-25T19:16:53.595Z,8.70
2019-02-25T19:19:38.448Z,8.67
2019-02-25T19:22:20.510Z,9.23
2019-02-25T19:25:04.039Z,9.70
2019-02-25T19:27:33.728Z,9.00
2019-02-25T19:30:03.070Z,9.67
2019-02-25T19:32:52.332Z,10.90
2019-02-25T19:35:40.844Z,9.43
2019-02-25T19:38:12.787Z,9.60
2019-02-25T19:40:43.120Z,9.30
2019-02-25T19:43:11.551Z,9.80
2019-02-25T19:45:40.975Z,10.27
2019-02-25T19:50:53.832Z,10.63
2019-02-25T19:53:36.546Z,10.63
2019-02-25T19:56:17.224Z,10.80
2019-02-25T19:58:45.870Z,12.17
2019-02-25T20:01:33.817Z,11.13
2019-02-25T20:04:06.395Z,11.50
2019-02-25T20:06:53.718Z,12.10
2019-02-25T20:09:23.729Z,12.87
2019-02-25T20:12:11.721Z,11.87
2019-02-25T20:14:59.697Z,11.97
2019-02-25T20:17:44.160Z,12.70
2019-02-25T20:23:10.770Z,12.93
2019-02-25T20:25:42.453Z,12.60
2019-02-25T20:28:28.952Z,12.93
2019-02-25T20:31:10.489Z,11.77
2019-02-25T20:34:01.492Z,12.83
2019-02-25T20:36:50.434Z,13.23
2019-02-25T20:39:33.657Z,13.70
2019-02-25T20:44:59.839Z,13.00
2019-02-25T20:47:48.356Z,12.17
2019-02-25T20:50:37.135Z,12.87
2019-02-25T20:53:25.672Z,12.40
2019-02-25T20:56:08.630Z,12.93
2019-02-25T20:58:38.318Z,12.13
2019-02-25T21:01:27.402Z,13.87
2019-02-25T21:04:11.453Z,13.70
2019-02-25T21:06:52.459Z,14.63
2019-02-25T21:09:21.478Z,14.23
2019-02-25T21:12:10.459Z,13.27
2019-02-25T21:14:58.945Z,13.53
2019-02-25T21:17:40.276Z,12.93
2019-02-25T21:20:21.431Z,12.70
2019-02-25T21:26:00.217Z,11.60
2019-02-25T21:28:42.847Z,12.43
2019-02-25T21:31:26.468Z,13.10
2019-02-25T21:34:06.725Z,12.37
2019-02-25T21:36:36.018Z,13.10
2019-02-25T21:41:35.346Z,12.90
2019-02-25T21:44:19.010Z,13.53
2019-02-25T21:47:01.090Z,12.03
2019-02-25T21:49:42.237Z,12.50
2019-02-25T21:52:13.071Z,13.20
2019-02-25T21:57:40.787Z,12.15
2019-02-25T22:00:31.905Z,12.50
2019-02-25T22:05:34.728Z,12.90
2019-02-25T22:08:24.357Z,13.40
2019-02-25T22:14:01.471Z,14.13
2019-02-25T22:19:41.377Z,14.30
2019-02-25T22:22:10.218Z,13.80
2019-02-25T22:36:55.273Z,14.83
2019-02-25T22:39:25.138Z,13.63
2019-02-25T22:44:31.266Z,14.70
2019-02-25T22:47:27.520Z,13.30
2019-02-25T22:49:49.799Z,14.10
2019-02-25T22:52:31.413Z,14.17
2019-02-25T22:55:15.246Z,14.53
2019-02-25T22:58:03.140Z,14.70
2019-02-25T23:03:45.553Z,13.80
2019-02-25T23:06:15.779Z,15.70
2019-02-25T23:08:56.624Z,14.47
2019-02-25T23:11:39.871Z,14.47
2019-02-25T23:14:09.453Z,13.60
2019-02-25T23:16:39.394Z,14.07
2019-02-25T23:19:22.513Z,13.93
2019-02-25T23:22:03.994Z,15.00
2019-02-25T23:24:45.487Z,13.83
2019-02-25T23:27:27.436Z,13.43
2019-02-25T23:29:56.578Z,13.53
2019-02-25T23:33:03.866Z,12.97
2019-02-25T23:35:32.799Z,12.77
2019-02-25T23:38:13.926Z,13.23
2019-02-25T23:40:55.076Z,14.13
2019-02-25T23:43:23.895Z,12.27
2019-02-25T23:46:11.995Z,13.53
2019-02-25T23:49:00.085Z,12.63
2019-02-25T23:51:41.687Z,12.57
2019-02-25T23:54:12.169Z,14.03
2019-02-25T23:57:02.019Z,13.03
2019-02-25T23:59:44.448Z,13.70
